Gentryville, Missouri
Current Conditions -  °F | °C
As of 7:15 AM on Friday 19 Dec 2014 (Local Time) from KLWD Reporting Station
Haze Haze  
Wind Chill: 28°   Ceiling: 600
Heat Index: 28°   Visibility: 6mi
Dew Point: 27°   Wind: 0mph
Humidity: 96%   Direction: NA
Pressure: 30.24"   Gusts: NA
Location:  40.2703°N, 94.321°W
Report Text: KLWD 191315Z AUTO 00000KT 6SM BR BKN006 BKN031 OVC042 M02/M03 A3024 RMK AO2 T10221028
Loading
Personal Weather Stations






























Interactive Weather Map New forecast layout! Learn more

10-Day Weather Forecast

Advertisements
Track Severe Weather on mobile